Time;durP1;ratioP1;P1;durP2;ratioP2;P2;SDS_P1;SDS_P2;PMS_P1;PMS_P2;Temp;Humidity;BMP_temperature;BMP_pressure;BME280_temperature;BME280_humidity;BME280_pressure;Samples;Min_cycle;Max_cycle;Signal;HPM_P1;HPM_P2
2023/06/20 00:01:46;;;;;;;5.95;3.33;;;;;;;;;;6303340;28;19909;-71
2023/06/20 00:04:46;;;;;;;;;;;;;;;;;;6309414;28;20008;-71
2023/06/20 00:07:46;;;;;;;4.50;3.80;;;;;;;;;;6307180;28;21083;-69
2023/06/20 00:10:47;;;;;;;;;;;;;;;;;;6305272;28;20047;-72
2023/06/20 00:13:47;;;;;;;3.97;3.30;;;;;;;;;;6306557;28;19900;-71
2023/06/20 00:16:47;;;;;;;;;;;;;;;;;;6305823;28;20020;-71
2023/06/20 00:19:47;;;;;;;3.90;3.50;;;;;;;;;;6300715;28;20110;-70
2023/06/20 00:22:50;;;;;;;6.17;4.63;;;;;;;;;;6302075;28;20313;-70
2023/06/20 00:25:51;;;;;;;4.75;4.22;;;;;;;;;;6306491;28;20032;-72
2023/06/20 00:28:51;;;;;;;;;;;;;;;;;;6302111;28;20024;-71
2023/06/20 00:31:51;;;;;;;4.13;3.72;;;;;;;;;;6305898;28;19912;-72
2023/06/20 00:34:51;;;;;;;;;;;;;;;;;;6306624;28;20016;-72
2023/06/20 00:37:52;;;;;;;5.38;3.75;;;;;;;;;;6306113;28;19912;-71
2023/06/20 00:40:52;;;;;;;;;;;;;;;;;;6309487;28;20040;-71
2023/06/20 00:43:52;;;;;;;5.15;3.40;;;;;;;;;;6299225;28;20033;-71
2023/06/20 00:46:52;;;;;;;;;;;;;;;;;;6301253;28;20028;-71
2023/06/20 00:49:53;;;;;;;3.97;3.50;;;;;;;;;;6304298;28;19919;-71
2023/06/20 00:52:54;;;;;;;;;;;;;;;;;;6305541;28;20017;-71
2023/06/20 00:55:55;;;;;;;6.68;3.55;;;;;;;;;;6306348;28;19896;-71
2023/06/20 00:58:55;;;;;;;4.68;4.10;;;;;;;;;;6301927;28;20021;-72
2023/06/20 01:01:55;;;;;;;;;;;;;;;;;;6306991;28;20023;-73
2023/06/20 01:04:55;;;;;;;4.68;3.88;;;;;;;;;;6308408;28;19924;-73
2023/06/20 01:07:58;;;;;;;;;;;;;;;;;;6305497;28;20137;-70
2023/06/20 01:11:03;;;;;;;3.67;3.35;;;;;;;;;;6281768;28;19969;-68
2023/06/20 01:14:09;;;;;;;4.38;3.97;;;;;;;;;;6274812;28;20021;-72
2023/06/20 01:17:10;;;;;;;5.10;4.20;;;;;;;;;;6303163;28;20020;-71
2023/06/20 01:20:14;;;;;;;4.63;4.00;;;;;;;;;;6302680;28;20116;-70
2023/06/20 01:23:25;;;;;;;5.07;4.55;;;;;;;;;;6303181;28;20084;-70
2023/06/20 01:26:34;;;;;;;5.13;4.25;;;;;;;;;;6289177;28;20526;-70
2023/06/20 01:29:47;;;;;;;5.28;4.47;;;;;;;;;;6285381;28;20508;-72
2023/06/20 01:32:48;;;;;;;4.93;4.43;;;;;;;;;;6286375;28;20036;-69
2023/06/20 01:35:49;;;;;;;5.75;4.60;;;;;;;;;;6290863;28;20035;-72
2023/06/20 01:38:50;;;;;;;5.40;4.70;;;;;;;;;;6292206;28;20331;-69
2023/06/20 01:41:50;;;;;;;;;;;;;;;;;;6280013;28;20020;-70
2023/06/20 01:44:52;;;;;;;4.22;3.83;;;;;;;;;;6281974;28;20380;-70
2023/06/20 01:47:54;;;;;;;4.55;4.15;;;;;;;;;;6278072;28;20021;-70
2023/06/20 01:50:55;;;;;;;5.53;4.63;;;;;;;;;;6278660;28;20103;-71
2023/06/20 01:53:56;;;;;;;5.45;4.72;;;;;;;;;;6277535;28;20320;-70
2023/06/20 01:56:59;;;;;;;;;;;;;;;;;;6279728;28;20024;-71
2023/06/20 01:59:59;;;;;;;4.57;3.58;;;;;;;;;;6287630;28;19908;-70
2023/06/20 02:03:00;;;;;;;4.93;4.30;;;;;;;;;;6284867;28;20027;-70
2023/06/20 02:06:01;;;;;;;;;;;;;;;;;;6281471;28;20342;-69
2023/06/20 02:09:02;;;;;;;4.75;4.22;;;;;;;;;;6281659;28;20049;-70
2023/06/20 02:12:02;;;;;;;;;;;;;;;;;;6286661;28;20052;-70
2023/06/20 02:15:04;;;;;;;4.28;3.88;;;;;;;;;;6283127;28;20375;-70
2023/06/20 02:18:04;;;;;;;4.90;4.43;;;;;;;;;;6281194;28;20402;-69
2023/06/20 02:21:06;;;;;;;4.90;4.43;;;;;;;;;;6282436;28;20093;-69
2023/06/20 02:24:06;;;;;;;5.40;4.90;;;;;;;;;;6275927;28;20359;-69
2023/06/20 02:27:07;;;;;;;5.45;4.88;;;;;;;;;;6286264;28;20012;-69
2023/06/20 02:30:07;;;;;;;;;;;;;;;;;;6283732;28;20033;-70
2023/06/20 02:33:08;;;;;;;7.43;4.32;;;;;;;;;;6281234;28;19916;-70
2023/06/20 02:36:09;;;;;;;6.45;5.20;;;;;;;;;;6282379;28;20552;-69
2023/06/20 02:39:10;;;;;;;6.80;5.05;;;;;;;;;;6282919;28;20032;-70
2023/06/20 02:42:10;;;;;;;6.20;4.72;;;;;;;;;;6278418;28;20089;-70
2023/06/20 02:45:10;;;;;;;;;;;;;;;;;;6278766;28;20040;-68
2023/06/20 02:48:20;;;;;;;4.88;4.40;;;;;;;;;;6277689;28;19934;-70
2023/06/20 02:51:23;;;;;;;5.35;4.68;;;;;;;;;;6279879;28;20031;-69
2023/06/20 02:54:31;;;;;;;5.78;5.28;;;;;;;;;;6280699;28;20024;-69
2023/06/20 02:57:32;;;;;;;5.10;4.63;;;;;;;;;;6281585;28;20016;-69
2023/06/20 03:00:34;;;;;;;5.47;4.65;;;;;;;;;;6284706;28;20546;-70
2023/06/20 03:03:44;;;;;;;5.63;5.13;;;;;;;;;;6284242;28;21884;-69
2023/06/20 03:06:45;;;;;;;6.18;5.28;;;;;;;;;;6279953;28;20035;-71
2023/06/20 03:09:45;;;;;;;7.10;5.20;;;;;;;;;;6280213;28;20416;-70
2023/06/20 03:12:46;;;;;;;6.55;5.30;;;;;;;;;;6278397;28;20304;-69
2023/06/20 03:15:49;;;;;;;7.45;5.55;;;;;;;;;;6283690;28;20021;-69
2023/06/20 03:18:51;;;;;;;6.53;5.43;;;;;;;;;;6284908;28;20111;-68
2023/06/20 03:21:53;;;;;;;5.70;5.10;;;;;;;;;;6280519;28;20043;-70
2023/06/20 03:24:53;;;;;;;5.68;5.15;;;;;;;;;;6283452;28;20032;-71
2023/06/20 03:27:54;;;;;;;5.97;5.20;;;;;;;;;;6281091;28;20024;-70
2023/06/20 03:30:54;;;;;;;;;;;;;;;;;;6280555;28;20449;-71
2023/06/20 03:33:54;;;;;;;5.32;4.55;;;;;;;;;;6275783;28;20289;-71
2023/06/20 03:36:54;;;;;;;;;;;;;;;;;;6280133;28;20021;-70
2023/06/20 03:39:54;;;;;;;4.97;4.43;;;;;;;;;;6271546;28;19938;-70
2023/06/20 03:42:55;;;;;;;6.32;4.95;;;;;;;;;;6279494;28;20025;-70
2023/06/20 03:45:55;;;;;;;;;;;;;;;;;;6277240;28;20060;-69
2023/06/20 03:48:56;;;;;;;5.68;4.68;;;;;;;;;;6271576;28;19920;-70
2023/06/20 03:51:56;;;;;;;;;;;;;;;;;;6271688;28;20389;-70
2023/06/20 03:54:56;;;;;;;5.73;4.80;;;;;;;;;;6273400;28;20354;-69
2023/06/20 03:57:56;;;;;;;6.47;5.37;;;;;;;;;;6273748;28;20441;-71
2023/06/20 04:00:56;;;;;;;;;;;;;;;;;;6272709;28;20027;-70
2023/06/20 04:03:57;;;;;;;6.03;4.45;;;;;;;;;;6270017;28;19912;-70
2023/06/20 04:06:57;;;;;;;;;;;;;;;;;;6270271;28;20035;-70
2023/06/20 04:09:57;;;;;;;6.45;4.22;;;;;;;;;;6277371;28;20407;-69
2023/06/20 04:12:57;;;;;;;;;;;;;;;;;;6276133;28;20038;-70
2023/06/20 04:15:58;;;;;;;7.35;4.90;;;;;;;;;;6274171;28;20599;-69
2023/06/20 04:18:58;;;;;;;;;;;;;;;;;;6275280;28;20552;-69
2023/06/20 04:21:58;;;;;;;6.90;5.18;;;;;;;;;;6286828;28;19913;-70
2023/06/20 04:24:59;;;;;;;;;;;;;;;;;;6286608;28;20501;-70
2023/06/20 04:27:59;;;;;;;5.82;5.15;;;;;;;;;;6282701;28;19943;-69
2023/06/20 04:31:00;;;;;;;;;;;;;;;;;;6271796;28;20048;-72
2023/06/20 04:34:00;;;;;;;5.80;5.20;;;;;;;;;;6275542;28;19923;-69
2023/06/20 04:37:01;;;;;;;;;;;;;;;;;;6273180;28;20016;-70
2023/06/20 04:40:03;;;;;;;6.47;5.13;;;;;;;;;;6276479;28;20365;-72
2023/06/20 04:43:03;;;;;;;7.03;6.32;;;;;;;;;;6287776;28;20024;-70
2023/06/20 04:46:04;;;;;;;;;;;;;;;;;;6282850;28;20028;-70
2023/06/20 04:49:04;;;;;;;6.57;5.93;;;;;;;;;;6275453;28;19920;-69
2023/06/20 04:52:05;;;;;;;;;;;;;;;;;;6275933;28;20029;-70
2023/06/20 04:55:06;;;;;;;6.72;5.78;;;;;;;;;;6271741;28;19916;-70
2023/06/20 04:58:07;;;;;;;7.50;6.70;;;;;;;;;;6277809;28;20024;-70
2023/06/20 05:01:07;;;;;;;7.90;7.15;;;;;;;;;;6266704;28;20401;-70
2023/06/20 05:04:07;;;;;;;;;;;;;;;;;;6272661;28;20060;-70
2023/06/20 05:07:07;;;;;;;8.43;6.22;;;;;;;;;;6271497;28;20062;-67
2023/06/20 05:10:08;;;;;;;7.13;6.43;;;;;;;;;;6279467;28;20029;-70
2023/06/20 05:13:08;;;;;;;7.75;6.93;;;;;;;;;;6285364;28;20279;-71
2023/06/20 05:16:09;;;;;;;8.35;7.43;;;;;;;;;;6276136;28;20016;-69
2023/06/20 05:19:09;;;;;;;8.70;7.05;;;;;;;;;;6274192;28;20031;-69
2023/06/20 05:22:09;;;;;;;7.97;6.63;;;;;;;;;;6277478;28;20105;-71
2023/06/20 05:25:09;;;;;;;8.30;7.50;;;;;;;;;;6271965;28;20274;-72
2023/06/20 05:28:09;;;;;;;7.72;7.03;;;;;;;;;;6271258;28;20274;-72
2023/06/20 05:31:10;;;;;;;7.50;6.80;;;;;;;;;;6274124;28;20025;-70
2023/06/20 05:34:10;;;;;;;7.55;6.38;;;;;;;;;;5921437;28;9999691;-69
2023/06/20 05:37:11;;;;;;;7.40;6.55;;;;;;;;;;6272906;28;20173;-69
2023/06/20 05:40:11;;;;;;;7.13;6.43;;;;;;;;;;6279617;28;20039;-70
2023/06/20 05:43:11;;;;;;;6.68;5.97;;;;;;;;;;6278096;28;22118;-68
2023/06/20 05:46:12;;;;;;;7.80;6.63;;;;;;;;;;6274264;28;20093;-70
2023/06/20 05:49:14;;;;;;;6.82;6.22;;;;;;;;;;6274550;28;20271;-70
2023/06/20 05:52:15;;;;;;;7.53;5.90;;;;;;;;;;6273462;28;20021;-70
2023/06/20 05:55:15;;;;;;;7.85;5.75;;;;;;;;;;6280105;28;20135;-70
2023/06/20 05:58:15;;;;;;;6.97;6.28;;;;;;;;;;6282412;28;20635;-70
2023/06/20 06:01:16;;;;;;;6.88;6.18;;;;;;;;;;6274976;28;20033;-70
2023/06/20 06:04:17;;;;;;;8.13;6.07;;;;;;;;;;6274284;28;20349;-68
2023/06/20 06:07:17;;;;;;;7.67;6.67;;;;;;;;;;6275190;28;20056;-71
2023/06/20 06:10:17;;;;;;;7.35;6.65;;;;;;;;;;6274625;28;20275;-71
2023/06/20 06:13:18;;;;;;;7.13;6.23;;;;;;;;;;6281335;28;20426;-71
2023/06/20 06:16:18;;;;;;;6.68;5.97;;;;;;;;;;6284132;28;20744;-70
2023/06/20 06:19:20;;;;;;;6.80;5.77;;;;;;;;;;6281952;28;20071;-71
2023/06/20 06:22:20;;;;;;;9.00;5.75;;;;;;;;;;6286413;28;20274;-70
2023/06/20 06:25:20;;;;;;;6.68;6.03;;;;;;;;;;6287418;28;20079;-71
2023/06/20 06:28:22;;;;;;;6.30;5.70;;;;;;;;;;6288077;28;20021;-71
2023/06/20 06:31:24;;;;;;;6.53;5.47;;;;;;;;;;6283048;28;20111;-71
2023/06/20 06:34:26;;;;;;;7.32;5.28;;;;;;;;;;6283745;28;20028;-71
2023/06/20 06:37:31;;;;;;;7.45;5.53;;;;;;;;;;6280761;28;20032;-70
2023/06/20 06:40:31;;;;;;;7.22;5.25;;;;;;;;;;6272445;28;20021;-71
2023/06/20 06:43:31;;;;;;;7.72;6.10;;;;;;;;;;6286501;28;20075;-71
2023/06/20 06:46:33;;;;;;;5.70;5.20;;;;;;;;;;6285939;28;20051;-71
2023/06/20 06:49:33;;;;;;;6.47;5.33;;;;;;;;;;6282086;28;20135;-71
2023/06/20 06:52:34;;;;;;;7.07;5.80;;;;;;;;;;6282982;28;20288;-70
2023/06/20 06:55:34;;;;;;;7.63;5.60;;;;;;;;;;6287228;28;20271;-71
2023/06/20 06:58:34;;;;;;;6.07;5.57;;;;;;;;;;6284519;28;20350;-70
2023/06/20 07:01:35;;;;;;;6.10;5.50;;;;;;;;;;6286122;28;20470;-71
2023/06/20 07:04:35;;;;;;;6.77;5.73;;;;;;;;;;6284366;28;20274;-70
2023/06/20 07:07:35;;;;;;;6.30;5.70;;;;;;;;;;6283856;28;20393;-70
2023/06/20 07:10:35;;;;;;;7.30;6.10;;;;;;;;;;6285828;28;20259;-71
2023/06/20 07:13:36;;;;;;;6.13;5.53;;;;;;;;;;6288673;28;20025;-70
2023/06/20 07:16:36;;;;;;;6.07;5.50;;;;;;;;;;6282142;28;20282;-71
2023/06/20 07:19:36;;;;;;;6.10;5.50;;;;;;;;;;6288359;28;20073;-70
2023/06/20 07:22:37;;;;;;;10.77;5.93;;;;;;;;;;6278287;28;20342;-69
2023/06/20 07:25:38;;;;;;;7.32;5.93;;;;;;;;;;6280831;28;20040;-71
2023/06/20 07:28:39;;;;;;;6.32;5.68;;;;;;;;;;6285094;28;20079;-71
2023/06/20 07:31:40;;;;;;;7.70;5.68;;;;;;;;;;6289076;28;20481;-70
2023/06/20 07:34:40;;;;;;;8.48;6.72;;;;;;;;;;6286631;28;20039;-71
2023/06/20 07:37:40;;;;;;;9.00;6.23;;;;;;;;;;6287562;28;20032;-72
2023/06/20 07:40:41;;;;;;;7.65;6.28;;;;;;;;;;6289157;28;20093;-70
2023/06/20 07:43:43;;;;;;;7.03;6.32;;;;;;;;;;6282047;28;21040;-69
2023/06/20 07:46:43;;;;;;;7.43;6.68;;;;;;;;;;6280007;28;20020;-70
2023/06/20 07:49:44;;;;;;;7.80;6.18;;;;;;;;;;6287381;28;20169;-68
2023/06/20 07:52:44;;;;;;;7.90;6.83;;;;;;;;;;6286391;28;20503;-71
2023/06/20 07:55:44;;;;;;;9.83;6.80;;;;;;;;;;6287941;28;20488;-70
2023/06/20 07:58:45;;;;;;;7.30;6.60;;;;;;;;;;6296516;28;20278;-72
2023/06/20 08:01:45;;;;;;;7.75;6.18;;;;;;;;;;6283312;28;20024;-71
2023/06/20 08:04:45;;;;;;;8.17;6.73;;;;;;;;;;6286484;28;20043;-70
2023/06/20 08:07:46;;;;;;;6.27;5.67;;;;;;;;;;6288568;28;20408;-72
2023/06/20 08:10:46;;;;;;;8.60;6.90;;;;;;;;;;6275693;28;20279;-68
2023/06/20 08:13:47;;;;;;;8.00;6.00;;;;;;;;;;6276006;28;20028;-69
2023/06/20 08:16:47;;;;;;;12.57;6.43;;;;;;;;;;6284098;28;20278;-70
2023/06/20 08:19:47;;;;;;;9.40;6.65;;;;;;;;;;6286440;28;20257;-70
2023/06/20 08:22:47;;;;;;;7.83;6.50;;;;;;;;;;6282989;28;20394;-70
2023/06/20 08:25:48;;;;;;;6.53;5.93;;;;;;;;;;6283778;28;20477;-71
2023/06/20 08:28:48;;;;;;;7.70;6.90;;;;;;;;;;6288771;28;20464;-71
2023/06/20 08:31:48;;;;;;;7.47;5.97;;;;;;;;;;6268511;28;20104;-71
2023/06/20 08:34:49;;;;;;;6.30;5.63;;;;;;;;;;6278631;28;20028;-71
2023/06/20 08:37:49;;;;;;;7.93;5.95;;;;;;;;;;6287024;28;20020;-71
2023/06/20 08:40:50;;;;;;;6.40;5.80;;;;;;;;;;6284931;28;20017;-70
2023/06/20 08:43:50;;;;;;;6.47;5.93;;;;;;;;;;6282960;28;20051;-72
2023/06/20 08:46:56;;;;;;;6.35;5.68;;;;;;;;;;6280884;28;20094;-72
2023/06/20 08:49:56;;;;;;;8.48;7.03;;;;;;;;;;6283955;28;20074;-71
2023/06/20 08:52:59;;;;;;;7.10;6.20;;;;;;;;;;6282171;28;20020;-71
2023/06/20 08:56:00;;;;;;;6.07;5.50;;;;;;;;;;6286906;28;20110;-73
2023/06/20 08:59:01;;;;;;;6.97;6.28;;;;;;;;;;6279616;28;20509;-72
2023/06/20 09:02:01;;;;;;;7.10;6.30;;;;;;;;;;6277150;28;20026;-72
2023/06/20 09:05:02;;;;;;;6.90;6.18;;;;;;;;;;6284434;28;20024;-71
2023/06/20 09:08:05;;;;;;;9.30;6.53;;;;;;;;;;6282839;28;20583;-71
2023/06/20 09:11:11;;;;;;;12.82;6.75;;;;;;;;;;6278063;28;20016;-71
2023/06/20 09:14:11;;;;;;;6.78;6.18;;;;;;;;;;6281832;28;20525;-71
2023/06/20 09:17:12;;;;;;;6.60;6.00;;;;;;;;;;6281257;28;20024;-71
2023/06/20 09:20:16;;;;;;;6.05;5.53;;;;;;;;;;6279112;28;20008;-70
2023/06/20 09:23:26;;;;;;;6.07;5.47;;;;;;;;;;6280517;28;20031;-71
2023/06/20 09:26:28;;;;;;;8.43;5.93;;;;;;;;;;6276465;28;20481;-70
2023/06/20 09:29:28;;;;;;;6.32;5.13;;;;;;;;;;6284668;28;20036;-70
2023/06/20 09:32:32;;;;;;;6.07;5.57;;;;;;;;;;6281273;28;20036;-71
2023/06/20 09:35:32;;;;;;;6.15;5.55;;;;;;;;;;6281964;28;20019;-71
2023/06/20 09:38:32;;;;;;;6.68;5.70;;;;;;;;;;6282878;28;20016;-71
2023/06/20 09:41:32;;;;;;;6.60;5.77;;;;;;;;;;6281150;28;20044;-71
2023/06/20 09:44:35;;;;;;;7.07;5.47;;;;;;;;;;6280455;28;20021;-71
2023/06/20 09:47:37;;;;;;;5.53;4.95;;;;;;;;;;6280391;28;20024;-71
2023/06/20 09:50:38;;;;;;;6.32;5.72;;;;;;;;;;6271312;28;20028;-71
2023/06/20 09:53:56;;;;;;;5.72;5.22;;;;;;;;;;6282116;28;20025;-71
2023/06/20 09:57:02;;;;;;;7.00;6.40;;;;;;;;;;6279205;28;20039;-71
2023/06/20 10:00:09;;;;;;;6.03;5.35;;;;;;;;;;6287548;28;20021;-71
2023/06/20 10:03:10;;;;;;;7.28;5.72;;;;;;;;;;6283337;28;20078;-72
2023/06/20 10:06:10;;;;;;;6.72;5.50;;;;;;;;;;6284153;28;20028;-72
2023/06/20 10:09:11;;;;;;;6.78;6.07;;;;;;;;;;6285301;28;20028;-70
2023/06/20 10:12:12;;;;;;;5.95;5.45;;;;;;;;;;6279958;28;20037;-70
2023/06/20 10:15:16;;;;;;;6.22;5.72;;;;;;;;;;6274869;28;20437;-71
2023/06/20 10:18:34;;;;;;;6.38;5.78;;;;;;;;;;6277666;28;20032;-71
2023/06/20 10:21:55;;;;;;;8.32;6.35;;;;;;;;;;6277048;28;20402;-71
2023/06/20 10:24:55;;;;;;;6.22;5.72;;;;;;;;;;6279868;28;20063;-72
2023/06/20 10:28:01;;;;;;;6.17;5.57;;;;;;;;;;6285654;28;20028;-72
2023/06/20 10:31:01;;;;;;;5.50;5.00;;;;;;;;;;6288928;28;20468;-71
2023/06/20 10:34:01;;;;;;;5.87;5.40;;;;;;;;;;6279502;28;20100;-71
2023/06/20 10:37:28;;;;;;;7.50;6.00;;;;;;;;;;6281542;28;20306;-71
2023/06/20 10:40:31;;;;;;;8.43;5.65;;;;;;;;;;6279498;28;20032;-69
2023/06/20 10:43:45;;;;;;;6.20;5.25;;;;;;;;;;6286233;28;20062;-71
2023/06/20 10:46:48;;;;;;;6.60;5.68;;;;;;;;;;6283716;28;20472;-71
2023/06/20 10:49:48;;;;;;;6.00;5.50;;;;;;;;;;6285078;28;20024;-72
2023/06/20 10:52:49;;;;;;;8.23;5.57;;;;;;;;;;6287569;28;20050;-71
2023/06/20 10:55:49;;;;;;;5.70;5.30;;;;;;;;;;6284567;28;20381;-70
2023/06/20 10:58:50;;;;;;;5.83;5.33;;;;;;;;;;6282285;28;20028;-71
2023/06/20 11:01:50;;;;;;;6.55;5.32;;;;;;;;;;6280988;28;20024;-71
2023/06/20 11:04:52;;;;;;;5.97;5.47;;;;;;;;;;6287810;28;20016;-71
2023/06/20 11:08:00;;;;;;;5.80;5.32;;;;;;;;;;6293068;28;20420;-71
2023/06/20 11:11:04;;;;;;;4.80;4.50;;;;;;;;;;6286606;28;20017;-69
2023/06/20 11:14:23;;;;;;;6.30;5.70;;;;;;;;;;6292113;28;20024;-72
2023/06/20 11:17:29;;;;;;;5.57;5.07;;;;;;;;;;6276776;28;20021;-71
2023/06/20 11:20:30;;;;;;;6.40;5.80;;;;;;;;;;6289868;28;20025;-70
2023/06/20 11:23:34;;;;;;;6.22;5.20;;;;;;;;;;6286705;28;20089;-71
2023/06/20 11:26:35;;;;;;;5.30;4.80;;;;;;;;;;6280875;28;20023;-71
2023/06/20 11:29:36;;;;;;;5.03;4.63;;;;;;;;;;6287521;28;20073;-71
2023/06/20 11:32:37;;;;;;;6.13;5.63;;;;;;;;;;6287739;28;20286;-71
2023/06/20 11:35:41;;;;;;;7.07;6.00;;;;;;;;;;6282347;28;20527;-72
2023/06/20 11:38:41;;;;;;;5.38;4.97;;;;;;;;;;6289187;28;20012;-71
2023/06/20 11:41:41;;;;;;;5.93;5.10;;;;;;;;;;6281353;28;20033;-72
2023/06/20 11:44:42;;;;;;;6.57;6.07;;;;;;;;;;6283029;28;20058;-71
2023/06/20 11:47:42;;;;;;;5.90;5.50;;;;;;;;;;6287828;28;20279;-72
2023/06/20 11:50:44;;;;;;;5.43;5.03;;;;;;;;;;6279123;28;20062;-71
2023/06/20 11:53:44;;;;;;;6.22;4.93;;;;;;;;;;6280361;28;20025;-70
2023/06/20 11:56:49;;;;;;;5.73;5.33;;;;;;;;;;6284425;28;20508;-72
2023/06/20 11:59:49;;;;;;;5.47;5.10;;;;;;;;;;6283606;28;20017;-71
2023/06/20 12:02:50;;;;;;;5.40;4.90;;;;;;;;;;6281882;28;20035;-73
2023/06/20 12:05:51;;;;;;;5.30;4.83;;;;;;;;;;6283690;28;20466;-70
2023/06/20 12:08:52;;;;;;;7.47;5.47;;;;;;;;;;6280899;28;20020;-72
2023/06/20 12:11:53;;;;;;;5.80;5.30;;;;;;;;;;6285581;28;20040;-72
2023/06/20 12:14:54;;;;;;;5.25;4.78;;;;;;;;;;6280632;28;20027;-72
2023/06/20 12:17:54;;;;;;;4.82;4.53;;;;;;;;;;6280242;28;20319;-72
2023/06/20 12:20:54;;;;;;;4.80;4.40;;;;;;;;;;5930713;28;10000015;-73
2023/06/20 12:23:55;;;;;;;4.83;4.43;;;;;;;;;;6283089;28;20028;-71
2023/06/20 12:26:56;;;;;;;6.03;5.57;;;;;;;;;;6288311;28;20017;-71
2023/06/20 12:29:56;;;;;;;5.68;5.28;;;;;;;;;;6284029;28;20092;-72
2023/06/20 12:32:58;;;;;;;5.30;4.90;;;;;;;;;;6282072;28;20017;-72
2023/06/20 12:35:59;;;;;;;6.35;5.78;;;;;;;;;;6285378;28;20024;-72
2023/06/20 12:39:00;;;;;;;5.53;5.10;;;;;;;;;;6275789;28;20017;-72
2023/06/20 12:42:00;;;;;;;5.28;4.78;;;;;;;;;;6277468;28;20116;-72
2023/06/20 12:45:00;;;;;;;4.70;4.43;;;;;;;;;;6282561;28;20335;-72
2023/06/20 12:48:01;;;;;;;5.37;5.07;;;;;;;;;;6283059;28;20036;-72
2023/06/20 12:51:01;;;;;;;5.55;5.05;;;;;;;;;;6287565;28;20028;-72
2023/06/20 12:54:01;;;;;;;6.20;5.70;;;;;;;;;;6286189;28;20040;-72
2023/06/20 12:57:01;;;;;;;5.90;5.37;;;;;;;;;;6273065;28;20102;-72
2023/06/20 13:00:04;;;;;;;5.50;5.10;;;;;;;;;;6284403;28;20170;-70
2023/06/20 13:03:05;;;;;;;5.55;5.13;;;;;;;;;;6278433;28;20043;-70
2023/06/20 13:06:05;;;;;;;6.18;5.78;;;;;;;;;;6289130;28;20028;-71
2023/06/20 13:09:05;;;;;;;6.30;5.90;;;;;;;;;;6286940;28;20032;-69
2023/06/20 13:12:06;;;;;;;5.77;5.30;;;;;;;;;;6280921;28;20084;-70
2023/06/20 13:15:07;;;;;;;6.00;5.47;;;;;;;;;;6276334;28;20166;-71
2023/06/20 13:18:09;;;;;;;6.05;5.55;;;;;;;;;;6286692;28;20020;-69
2023/06/20 13:21:09;;;;;;;5.70;5.30;;;;;;;;;;6285331;28;20027;-71
2023/06/20 13:24:09;;;;;;;6.30;5.80;;;;;;;;;;6287071;28;20020;-70
2023/06/20 13:27:10;;;;;;;6.13;5.63;;;;;;;;;;6283813;28;20024;-70
2023/06/20 13:30:11;;;;;;;6.07;5.53;;;;;;;;;;6289668;28;20150;-71
2023/06/20 13:33:11;;;;;;;5.80;5.40;;;;;;;;;;6285736;28;20044;-71
2023/06/20 13:36:11;;;;;;;6.27;5.77;;;;;;;;;;6287508;28;20078;-71
2023/06/20 13:39:12;;;;;;;6.50;6.00;;;;;;;;;;6285817;28;20093;-71
2023/06/20 13:42:12;;;;;;;5.87;5.47;;;;;;;;;;6284091;28;20411;-70
2023/06/20 13:45:13;;;;;;;5.40;4.90;;;;;;;;;;6279233;28;20460;-72
2023/06/20 13:48:14;;;;;;;6.07;5.57;;;;;;;;;;6278751;28;20490;-71
2023/06/20 13:51:15;;;;;;;6.13;5.73;;;;;;;;;;6284475;28;20087;-70
2023/06/20 13:54:15;;;;;;;6.63;5.97;;;;;;;;;;6283115;28;20103;-70
2023/06/20 13:57:15;;;;;;;5.13;4.83;;;;;;;;;;6289375;28;20050;-69
2023/06/20 14:00:16;;;;;;;6.30;5.80;;;;;;;;;;6287746;28;20028;-70
2023/06/20 14:03:16;;;;;;;6.33;5.50;;;;;;;;;;6289884;28;20017;-69
2023/06/20 14:06:16;;;;;;;5.10;4.73;;;;;;;;;;6290264;28;20282;-72
2023/06/20 14:09:17;;;;;;;5.90;5.50;;;;;;;;;;6281975;28;20491;-72
2023/06/20 14:12:19;;;;;;;5.90;5.43;;;;;;;;;;6293701;28;20025;-72
2023/06/20 14:15:19;;;;;;;5.93;5.45;;;;;;;;;;6290282;28;20383;-72
2023/06/20 14:18:19;;;;;;;5.83;5.33;;;;;;;;;;6281619;28;20558;-72
2023/06/20 14:21:20;;;;;;;5.63;5.23;;;;;;;;;;6289180;28;20016;-72
2023/06/20 14:24:20;;;;;;;5.80;5.30;;;;;;;;;;6288344;28;20024;-72
2023/06/20 14:27:23;;;;;;;5.57;5.10;;;;;;;;;;6287118;28;20169;-71
2023/06/20 14:30:23;;;;;;;7.15;5.55;;;;;;;;;;6291627;28;20052;-70
2023/06/20 14:33:24;;;;;;;6.33;5.73;;;;;;;;;;6293161;28;20041;-71
2023/06/20 14:36:25;;;;;;;5.32;4.82;;;;;;;;;;6287362;28;20115;-71
2023/06/20 14:39:26;;;;;;;5.57;5.07;;;;;;;;;;6281026;28;20078;-72
2023/06/20 14:42:27;;;;;;;4.93;4.63;;;;;;;;;;6290044;28;20028;-72
2023/06/20 14:45:27;;;;;;;5.23;4.80;;;;;;;;;;6291393;28;20524;-72
2023/06/20 14:48:27;;;;;;;7.32;5.13;;;;;;;;;;6291915;28;20462;-71
2023/06/20 14:51:28;;;;;;;5.50;5.10;;;;;;;;;;6294805;28;20021;-71
2023/06/20 14:54:28;;;;;;;5.03;4.73;;;;;;;;;;6294585;28;20147;-71
2023/06/20 14:57:28;;;;;;;5.60;5.10;;;;;;;;;;6282494;28;20037;-70
2023/06/20 15:00:29;;;;;;;5.65;5.25;;;;;;;;;;6282083;28;20271;-71
2023/06/20 15:03:29;;;;;;;5.40;5.00;;;;;;;;;;6287670;28;20028;-72
2023/06/20 15:06:29;;;;;;;5.50;5.00;;;;;;;;;;6285038;28;20017;-71
2023/06/20 15:09:29;;;;;;;5.10;4.70;;;;;;;;;;6285277;28;20035;-70
2023/06/20 15:12:31;;;;;;;5.13;4.73;;;;;;;;;;6282398;28;20478;-71
2023/06/20 15:15:32;;;;;;;5.32;4.95;;;;;;;;;;6282152;28;20034;-70
2023/06/20 15:18:37;;;;;;;5.50;5.00;;;;;;;;;;6283920;28;20028;-69
2023/06/20 15:21:37;;;;;;;5.18;4.78;;;;;;;;;;6287389;28;20071;-70
2023/06/20 15:24:37;;;;;;;4.90;4.60;;;;;;;;;;6284811;28;20079;-71
2023/06/20 15:27:38;;;;;;;5.13;4.75;;;;;;;;;;6282685;28;20099;-70
2023/06/20 15:30:38;;;;;;;5.60;5.20;;;;;;;;;;6286284;28;20025;-71
2023/06/20 15:33:38;;;;;;;5.77;5.10;;;;;;;;;;6285220;28;20044;-71
2023/06/20 15:36:39;;;;;;;5.47;4.90;;;;;;;;;;6284947;28;20464;-72
2023/06/20 15:39:39;;;;;;;5.43;5.03;;;;;;;;;;6287666;28;20418;-73
2023/06/20 15:42:39;;;;;;;7.23;4.70;;;;;;;;;;6285958;28;20026;-71
2023/06/20 15:45:39;;;;;;;5.07;4.60;;;;;;;;;;6283384;28;20066;-71
2023/06/20 15:48:59;;;;;;;6.10;5.53;;;;;;;;;;6284843;28;20514;-71
2023/06/20 15:51:59;;;;;;;6.13;4.97;;;;;;;;;;6284837;28;20021;-72
2023/06/20 15:54:59;;;;;;;4.78;4.38;;;;;;;;;;6284385;28;20039;-73
2023/06/20 15:58:00;;;;;;;6.10;5.60;;;;;;;;;;6281678;28;20021;-70
2023/06/20 16:01:00;;;;;;;5.57;4.97;;;;;;;;;;6280344;28;20099;-70
2023/06/20 16:04:00;;;;;;;5.30;4.80;;;;;;;;;;6285907;28;20020;-72
2023/06/20 16:07:03;;;;;;;5.60;5.10;;;;;;;;;;6290051;28;20092;-71
2023/06/20 16:10:03;;;;;;;6.45;5.03;;;;;;;;;;6289735;28;20028;-70
2023/06/20 16:13:04;;;;;;;5.03;4.63;;;;;;;;;;6283587;28;20028;-71
2023/06/20 16:16:04;;;;;;;6.03;5.55;;;;;;;;;;6285790;28;20538;-72
2023/06/20 16:19:04;;;;;;;6.20;5.60;;;;;;;;;;6273914;28;20040;-72
2023/06/20 16:22:05;;;;;;;6.43;5.83;;;;;;;;;;6297568;28;20024;-71
2023/06/20 16:25:06;;;;;;;5.97;5.38;;;;;;;;;;6301672;28;20031;-70
2023/06/20 16:28:06;;;;;;;6.07;5.60;;;;;;;;;;6302135;28;20076;-73
2023/06/20 16:31:07;;;;;;;7.07;6.00;;;;;;;;;;6297403;28;20258;-71
2023/06/20 16:34:07;;;;;;;6.57;5.17;;;;;;;;;;6300023;28;20670;-73
2023/06/20 16:37:07;;;;;;;5.53;5.07;;;;;;;;;;6306789;28;20028;-68
2023/06/20 16:40:08;;;;;;;6.07;5.47;;;;;;;;;;6306523;28;20028;-68
2023/06/20 16:43:09;;;;;;;5.10;4.70;;;;;;;;;;6302758;28;22225;-69
2023/06/20 16:46:10;;;;;;;6.13;5.53;;;;;;;;;;6293759;28;20333;-70
2023/06/20 16:49:10;;;;;;;5.68;5.20;;;;;;;;;;6307285;28;20025;-70
2023/06/20 16:52:10;;;;;;;6.05;5.45;;;;;;;;;;6306147;28;20134;-72
2023/06/20 16:55:10;;;;;;;5.63;5.13;;;;;;;;;;6306711;28;20024;-70
2023/06/20 16:58:11;;;;;;;5.57;5.13;;;;;;;;;;6299289;28;20359;-70
2023/06/20 17:01:11;;;;;;;6.43;5.23;;;;;;;;;;6280550;28;20033;-72
2023/06/20 17:04:11;;;;;;;5.82;5.38;;;;;;;;;;6304396;28;20024;-72
2023/06/20 17:07:12;;;;;;;6.13;5.63;;;;;;;;;;6301645;28;20061;-70
2023/06/20 17:10:12;;;;;;;7.00;5.78;;;;;;;;;;6301248;28;20035;-71
2023/06/20 17:13:12;;;;;;;6.17;5.67;;;;;;;;;;6303197;28;20116;-71
2023/06/20 17:16:12;;;;;;;7.37;6.20;;;;;;;;;;6299698;28;20032;-72
2023/06/20 17:19:13;;;;;;;6.57;5.97;;;;;;;;;;6302394;28;20488;-70
2023/06/20 17:22:13;;;;;;;7.57;5.60;;;;;;;;;;6304457;28;20047;-69
2023/06/20 17:25:13;;;;;;;9.73;5.40;;;;;;;;;;6305920;28;20032;-72
2023/06/20 17:28:13;;;;;;;7.30;5.77;;;;;;;;;;6317912;28;20292;-72
2023/06/20 17:31:14;;;;;;;7.00;6.30;;;;;;;;;;6306857;28;20503;-71
2023/06/20 17:34:14;;;;;;;6.35;5.78;;;;;;;;;;6292943;28;20410;-71
2023/06/20 17:37:14;;;;;;;5.60;5.10;;;;;;;;;;6285650;28;20024;-72
2023/06/20 17:40:14;;;;;;;6.00;5.38;;;;;;;;;;6287947;28;20027;-72
2023/06/20 17:43:15;;;;;;;6.22;5.63;;;;;;;;;;6289661;28;20044;-71
2023/06/20 17:46:15;;;;;;;9.73;6.20;;;;;;;;;;6297768;28;20078;-75
2023/06/20 17:49:16;;;;;;;6.10;5.60;;;;;;;;;;6309617;28;20017;-71
2023/06/20 17:52:17;;;;;;;6.53;5.93;;;;;;;;;;6286380;28;20533;-71
2023/06/20 17:55:17;;;;;;;6.25;5.72;;;;;;;;;;6293402;28;20374;-72
2023/06/20 17:58:18;;;;;;;6.20;5.70;;;;;;;;;;6284110;28;20020;-69
2023/06/20 18:01:27;;;;;;;6.00;5.40;;;;;;;;;;6287599;28;20336;-69
2023/06/20 18:04:27;;;;;;;5.30;4.82;;;;;;;;;;6296738;28;20219;-70
2023/06/20 18:07:27;;;;;;;5.40;4.80;;;;;;;;;;6283443;28;20016;-69
2023/06/20 18:10:28;;;;;;;5.80;5.20;;;;;;;;;;6282795;28;20993;-69
2023/06/20 18:13:28;;;;;;;5.93;5.43;;;;;;;;;;6280912;28;20508;-71
2023/06/20 18:16:28;;;;;;;6.57;5.50;;;;;;;;;;6291105;28;20364;-74